sensor_id;sensor_type;location;lat;lon;timestamp;temperature;humidity
37222;DHT22;23119;51.842;-2.230;2022-11-20T00:01:30;8.00;99.90
37222;DHT22;23119;51.842;-2.230;2022-11-20T00:04:03;8.00;99.90
37222;DHT22;23119;51.842;-2.230;2022-11-20T00:06:29;8.00;99.90
37222;DHT22;23119;51.842;-2.230;2022-11-20T00:08:57;8.00;99.90
37222;DHT22;23119;51.842;-2.230;2022-11-20T00:11:27;7.90;99.90
37222;DHT22;23119;51.842;-2.230;2022-11-20T00:13:58;7.80;99.90
37222;DHT22;23119;51.842;-2.230;2022-11-20T00:16:29;7.90;99.90
37222;DHT22;23119;51.842;-2.230;2022-11-20T00:18:55;8.30;99.90
37222;DHT22;23119;51.842;-2.230;2022-11-20T00:21:26;7.80;99.90
37222;DHT22;23119;51.842;-2.230;2022-11-20T00:23:55;7.80;99.90
37222;DHT22;23119;51.842;-2.230;2022-11-20T00:26:25;7.80;99.90
37222;DHT22;23119;51.842;-2.230;2022-11-20T00:29:02;7.90;99.90
37222;DHT22;23119;51.842;-2.230;2022-11-20T00:31:29;7.60;99.90
37222;DHT22;23119;51.842;-2.230;2022-11-20T00:33:55;7.80;99.90
37222;DHT22;23119;51.842;-2.230;2022-11-20T00:36:26;7.90;99.90
37222;DHT22;23119;51.842;-2.230;2022-11-20T00:38:59;7.90;99.90
37222;DHT22;23119;51.842;-2.230;2022-11-20T00:41:26;7.80;99.90
37222;DHT22;23119;51.842;-2.230;2022-11-20T00:43:53;7.90;99.90
37222;DHT22;23119;51.842;-2.230;2022-11-20T00:46:24;7.80;99.90
37222;DHT22;23119;51.842;-2.230;2022-11-20T00:48:52;7.80;99.90
37222;DHT22;23119;51.842;-2.230;2022-11-20T00:51:22;7.80;99.90
37222;DHT22;23119;51.842;-2.230;2022-11-20T00:53:51;7.80;99.90
37222;DHT22;23119;51.842;-2.230;2022-11-20T00:56:18;7.80;99.90
37222;DHT22;23119;51.842;-2.230;2022-11-20T00:58:45;7.80;99.90
37222;DHT22;23119;51.842;-2.230;2022-11-20T01:01:28;7.80;99.90
37222;DHT22;23119;51.842;-2.230;2022-11-20T01:03:59;7.90;99.90
37222;DHT22;23119;51.842;-2.230;2022-11-20T01:06:34;7.80;99.90
37222;DHT22;23119;51.842;-2.230;2022-11-20T01:09:07;7.80;99.90
37222;DHT22;23119;51.842;-2.230;2022-11-20T01:11:41;7.70;99.90
37222;DHT22;23119;51.842;-2.230;2022-11-20T01:14:15;7.70;99.90
37222;DHT22;23119;51.842;-2.230;2022-11-20T01:16:44;7.80;99.90
37222;DHT22;23119;51.842;-2.230;2022-11-20T01:19:21;7.70;99.90
37222;DHT22;23119;51.842;-2.230;2022-11-20T01:21:50;7.80;99.90
37222;DHT22;23119;51.842;-2.230;2022-11-20T01:24:20;7.70;99.90
37222;DHT22;23119;51.842;-2.230;2022-11-20T01:26:49;7.70;99.90
37222;DHT22;23119;51.842;-2.230;2022-11-20T01:29:18;7.70;99.90
37222;DHT22;23119;51.842;-2.230;2022-11-20T01:31:49;7.80;99.90
37222;DHT22;23119;51.842;-2.230;2022-11-20T01:34:21;7.70;99.90
37222;DHT22;23119;51.842;-2.230;2022-11-20T01:36:47;7.80;99.90
37222;DHT22;23119;51.842;-2.230;2022-11-20T01:39:21;7.70;99.90
37222;DHT22;23119;51.842;-2.230;2022-11-20T01:41:49;7.80;99.90
37222;DHT22;23119;51.842;-2.230;2022-11-20T01:45:00;7.70;99.90
37222;DHT22;23119;51.842;-2.230;2022-11-20T01:47:30;7.80;99.90
37222;DHT22;23119;51.842;-2.230;2022-11-20T01:50:15;7.80;99.90
37222;DHT22;23119;51.842;-2.230;2022-11-20T01:55:27;7.80;99.90
37222;DHT22;23119;51.842;-2.230;2022-11-20T01:57:54;9.30;99.90
37222;DHT22;23119;51.842;-2.230;2022-11-20T02:00:21;7.90;99.90
37222;DHT22;23119;51.842;-2.230;2022-11-20T02:03:06;7.80;99.90
37222;DHT22;23119;51.842;-2.230;2022-11-20T02:05:46;7.80;99.90
37222;DHT22;23119;51.842;-2.230;2022-11-20T02:08:15;7.80;99.90
37222;DHT22;23119;51.842;-2.230;2022-11-20T02:10:41;7.90;99.90
37222;DHT22;23119;51.842;-2.230;2022-11-20T02:13:10;7.80;99.90
37222;DHT22;23119;51.842;-2.230;2022-11-20T02:15:57;7.90;99.90
37222;DHT22;23119;51.842;-2.230;2022-11-20T02:18:26;8.00;99.90
37222;DHT22;23119;51.842;-2.230;2022-11-20T02:21:01;7.80;99.90
37222;DHT22;23119;51.842;-2.230;2022-11-20T02:23:32;7.90;99.90
37222;DHT22;23119;51.842;-2.230;2022-11-20T02:26:07;7.90;99.90
37222;DHT22;23119;51.842;-2.230;2022-11-20T02:28:37;7.90;99.90
37222;DHT22;23119;51.842;-2.230;2022-11-20T02:31:05;8.00;99.90
37222;DHT22;23119;51.842;-2.230;2022-11-20T02:33:33;7.90;99.90
37222;DHT22;23119;51.842;-2.230;2022-11-20T02:36:05;8.00;99.90
37222;DHT22;23119;51.842;-2.230;2022-11-20T02:38:34;8.10;99.90
37222;DHT22;23119;51.842;-2.230;2022-11-20T02:41:00;8.00;99.90
37222;DHT22;23119;51.842;-2.230;2022-11-20T02:43:28;8.10;99.90
37222;DHT22;23119;51.842;-2.230;2022-11-20T02:45:56;8.10;99.90
37222;DHT22;23119;51.842;-2.230;2022-11-20T02:48:22;8.10;99.90
37222;DHT22;23119;51.842;-2.230;2022-11-20T02:53:14;8.30;99.90
37222;DHT22;23119;51.842;-2.230;2022-11-20T02:55:42;8.10;99.90
37222;DHT22;23119;51.842;-2.230;2022-11-20T02:58:11;8.30;99.90
37222;DHT22;23119;51.842;-2.230;2022-11-20T03:00:37;8.30;99.90
37222;DHT22;23119;51.842;-2.230;2022-11-20T03:03:03;8.30;99.90
37222;DHT22;23119;51.842;-2.230;2022-11-20T03:05:28;8.50;99.90
37222;DHT22;23119;51.842;-2.230;2022-11-20T03:07:57;8.50;99.90
37222;DHT22;23119;51.842;-2.230;2022-11-20T03:10:25;8.40;99.90
37222;DHT22;23119;51.842;-2.230;2022-11-20T03:12:57;8.50;99.90
37222;DHT22;23119;51.842;-2.230;2022-11-20T03:15:23;8.50;99.90
37222;DHT22;23119;51.842;-2.230;2022-11-20T03:17:52;8.50;99.90
37222;DHT22;23119;51.842;-2.230;2022-11-20T03:20:18;8.50;99.90
37222;DHT22;23119;51.842;-2.230;2022-11-20T03:22:44;8.50;99.90
37222;DHT22;23119;51.842;-2.230;2022-11-20T03:25:10;8.50;99.90
37222;DHT22;23119;51.842;-2.230;2022-11-20T03:27:36;8.60;99.90
37222;DHT22;23119;51.842;-2.230;2022-11-20T03:30:07;8.40;99.90
37222;DHT22;23119;51.842;-2.230;2022-11-20T03:32:34;8.60;99.90
37222;DHT22;23119;51.842;-2.230;2022-11-20T03:35:00;8.60;99.90
37222;DHT22;23119;51.842;-2.230;2022-11-20T03:37:26;8.70;99.90
37222;DHT22;23119;51.842;-2.230;2022-11-20T03:39:58;8.60;99.90
37222;DHT22;23119;51.842;-2.230;2022-11-20T03:42:24;8.50;99.90
37222;DHT22;23119;51.842;-2.230;2022-11-20T03:45:08;8.60;99.90
37222;DHT22;23119;51.842;-2.230;2022-11-20T03:47:34;8.70;99.90
37222;DHT22;23119;51.842;-2.230;2022-11-20T03:50:00;8.50;99.90
37222;DHT22;23119;51.842;-2.230;2022-11-20T03:52:28;8.50;99.90
37222;DHT22;23119;51.842;-2.230;2022-11-20T03:54:56;8.50;99.90
37222;DHT22;23119;51.842;-2.230;2022-11-20T03:57:22;8.60;99.90
37222;DHT22;23119;51.842;-2.230;2022-11-20T03:59:48;8.60;99.90
37222;DHT22;23119;51.842;-2.230;2022-11-20T04:02:13;8.60;99.90
37222;DHT22;23119;51.842;-2.230;2022-11-20T04:04:39;8.40;99.90
37222;DHT22;23119;51.842;-2.230;2022-11-20T04:07:08;8.60;99.90
37222;DHT22;23119;51.842;-2.230;2022-11-20T04:09:33;8.60;99.90
37222;DHT22;23119;51.842;-2.230;2022-11-20T04:11:59;8.60;99.90
37222;DHT22;23119;51.842;-2.230;2022-11-20T04:14:25;8.60;99.90
37222;DHT22;23119;51.842;-2.230;2022-11-20T04:16:51;8.60;99.90
37222;DHT22;23119;51.842;-2.230;2022-11-20T04:19:17;8.50;99.90
37222;DHT22;23119;51.842;-2.230;2022-11-20T04:21:43;8.50;99.90
37222;DHT22;23119;51.842;-2.230;2022-11-20T04:24:14;8.50;99.90
37222;DHT22;23119;51.842;-2.230;2022-11-20T04:26:40;8.50;99.90
37222;DHT22;23119;51.842;-2.230;2022-11-20T04:29:11;8.50;99.90
37222;DHT22;23119;51.842;-2.230;2022-11-20T04:31:37;8.50;99.90
37222;DHT22;23119;51.842;-2.230;2022-11-20T04:34:06;8.40;99.90
37222;DHT22;23119;51.842;-2.230;2022-11-20T04:36:32;8.40;99.90
37222;DHT22;23119;51.842;-2.230;2022-11-20T04:39:04;8.40;99.90
37222;DHT22;23119;51.842;-2.230;2022-11-20T04:41:36;8.40;99.90
37222;DHT22;23119;51.842;-2.230;2022-11-20T04:44:03;8.30;99.90
37222;DHT22;23119;51.842;-2.230;2022-11-20T04:46:31;8.40;99.90
37222;DHT22;23119;51.842;-2.230;2022-11-20T04:48:57;8.30;99.90
37222;DHT22;23119;51.842;-2.230;2022-11-20T04:51:26;8.40;99.90
37222;DHT22;23119;51.842;-2.230;2022-11-20T04:53:52;8.10;99.90
37222;DHT22;23119;51.842;-2.230;2022-11-20T04:56:18;8.30;99.90
37222;DHT22;23119;51.842;-2.230;2022-11-20T04:58:46;8.30;99.90
37222;DHT22;23119;51.842;-2.230;2022-11-20T05:01:19;8.20;99.90
37222;DHT22;23119;51.842;-2.230;2022-11-20T05:03:48;8.30;99.90
37222;DHT22;23119;51.842;-2.230;2022-11-20T05:06:19;8.20;99.90
37222;DHT22;23119;51.842;-2.230;2022-11-20T05:08:48;8.10;99.90
37222;DHT22;23119;51.842;-2.230;2022-11-20T05:11:17;8.20;99.90
37222;DHT22;23119;51.842;-2.230;2022-11-20T05:13:46;8.20;99.90
37222;DHT22;23119;51.842;-2.230;2022-11-20T05:16:14;8.20;99.90
37222;DHT22;23119;51.842;-2.230;2022-11-20T05:18:40;8.20;99.90
37222;DHT22;23119;51.842;-2.230;2022-11-20T05:21:08;8.00;99.90
37222;DHT22;23119;51.842;-2.230;2022-11-20T05:23:34;8.10;99.90
37222;DHT22;23119;51.842;-2.230;2022-11-20T05:26:04;8.10;99.90
37222;DHT22;23119;51.842;-2.230;2022-11-20T05:28:33;8.00;99.90
37222;DHT22;23119;51.842;-2.230;2022-11-20T05:31:16;8.00;99.90
37222;DHT22;23119;51.842;-2.230;2022-11-20T05:33:46;8.00;99.90
37222;DHT22;23119;51.842;-2.230;2022-11-20T05:36:13;8.00;99.90
37222;DHT22;23119;51.842;-2.230;2022-11-20T05:38:41;8.00;99.90
37222;DHT22;23119;51.842;-2.230;2022-11-20T05:41:09;8.10;99.90
37222;DHT22;23119;51.842;-2.230;2022-11-20T05:43:38;8.00;99.90
37222;DHT22;23119;51.842;-2.230;2022-11-20T05:46:06;8.00;99.90
37222;DHT22;23119;51.842;-2.230;2022-11-20T05:48:35;8.00;99.90
37222;DHT22;23119;51.842;-2.230;2022-11-20T05:51:03;8.00;99.90
37222;DHT22;23119;51.842;-2.230;2022-11-20T05:53:33;8.00;99.90
37222;DHT22;23119;51.842;-2.230;2022-11-20T05:56:03;7.80;99.90
37222;DHT22;23119;51.842;-2.230;2022-11-20T05:58:30;8.00;99.90
37222;DHT22;23119;51.842;-2.230;2022-11-20T06:01:13;8.00;99.90
37222;DHT22;23119;51.842;-2.230;2022-11-20T06:03:40;8.00;99.90
37222;DHT22;23119;51.842;-2.230;2022-11-20T06:06:08;8.00;99.90
37222;DHT22;23119;51.842;-2.230;2022-11-20T06:08:34;8.00;99.90
37222;DHT22;23119;51.842;-2.230;2022-11-20T06:11:05;8.10;99.90
37222;DHT22;23119;51.842;-2.230;2022-11-20T06:13:31;8.10;99.90
37222;DHT22;23119;51.842;-2.230;2022-11-20T06:15:59;8.10;99.90
37222;DHT22;23119;51.842;-2.230;2022-11-20T06:18:29;8.10;99.90
37222;DHT22;23119;51.842;-2.230;2022-11-20T06:21:23;8.10;99.90
37222;DHT22;23119;51.842;-2.230;2022-11-20T06:23:50;8.10;99.90
37222;DHT22;23119;51.842;-2.230;2022-11-20T06:26:24;8.10;99.90
37222;DHT22;23119;51.842;-2.230;2022-11-20T06:28:51;8.10;99.90
37222;DHT22;23119;51.842;-2.230;2022-11-20T06:31:22;8.10;99.90
37222;DHT22;23119;51.842;-2.230;2022-11-20T06:33:50;8.00;99.90
37222;DHT22;23119;51.842;-2.230;2022-11-20T06:36:19;8.10;99.90
37222;DHT22;23119;51.842;-2.230;2022-11-20T06:38:51;8.00;99.90
37222;DHT22;23119;51.842;-2.230;2022-11-20T06:41:23;7.90;99.90
37222;DHT22;23119;51.842;-2.230;2022-11-20T06:43:49;8.00;99.90
37222;DHT22;23119;51.842;-2.230;2022-11-20T06:46:19;8.00;99.90
37222;DHT22;23119;51.842;-2.230;2022-11-20T06:48:46;8.00;99.90
37222;DHT22;23119;51.842;-2.230;2022-11-20T06:51:12;8.00;99.90
37222;DHT22;23119;51.842;-2.230;2022-11-20T06:53:40;8.00;99.90
37222;DHT22;23119;51.842;-2.230;2022-11-20T06:56:07;8.00;99.90
37222;DHT22;23119;51.842;-2.230;2022-11-20T06:58:34;8.00;99.90
37222;DHT22;23119;51.842;-2.230;2022-11-20T07:01:08;7.90;99.90
37222;DHT22;23119;51.842;-2.230;2022-11-20T07:03:39;7.90;99.90
37222;DHT22;23119;51.842;-2.230;2022-11-20T07:06:06;7.90;99.90
37222;DHT22;23119;51.842;-2.230;2022-11-20T07:08:34;8.00;99.90
37222;DHT22;23119;51.842;-2.230;2022-11-20T07:11:02;7.90;99.90
37222;DHT22;23119;51.842;-2.230;2022-11-20T07:13:35;8.00;99.90
37222;DHT22;23119;51.842;-2.230;2022-11-20T07:16:05;7.90;99.90
37222;DHT22;23119;51.842;-2.230;2022-11-20T07:18:34;7.90;99.90
37222;DHT22;23119;51.842;-2.230;2022-11-20T07:21:09;7.80;99.90
37222;DHT22;23119;51.842;-2.230;2022-11-20T07:23:36;7.80;99.90
37222;DHT22;23119;51.842;-2.230;2022-11-20T07:26:10;7.70;99.90
37222;DHT22;23119;51.842;-2.230;2022-11-20T07:28:39;7.90;99.90
37222;DHT22;23119;51.842;-2.230;2022-11-20T07:31:05;7.90;99.90
37222;DHT22;23119;51.842;-2.230;2022-11-20T07:33:32;7.80;99.90
37222;DHT22;23119;51.842;-2.230;2022-11-20T07:36:04;7.90;99.90
37222;DHT22;23119;51.842;-2.230;2022-11-20T07:38:33;7.90;99.90
37222;DHT22;23119;51.842;-2.230;2022-11-20T07:40:58;8.00;99.90
37222;DHT22;23119;51.842;-2.230;2022-11-20T07:43:27;7.90;99.90
37222;DHT22;23119;51.842;-2.230;2022-11-20T07:45:57;7.90;99.90
37222;DHT22;23119;51.842;-2.230;2022-11-20T07:48:24;7.90;99.90
37222;DHT22;23119;51.842;-2.230;2022-11-20T07:50:59;8.00;99.90
37222;DHT22;23119;51.842;-2.230;2022-11-20T07:53:27;7.90;99.90
37222;DHT22;23119;51.842;-2.230;2022-11-20T07:58:20;7.90;99.90
37222;DHT22;23119;51.842;-2.230;2022-11-20T08:00:48;8.00;99.90
37222;DHT22;23119;51.842;-2.230;2022-11-20T08:03:17;8.10;99.90
37222;DHT22;23119;51.842;-2.230;2022-11-20T08:05:43;8.00;99.90
37222;DHT22;23119;51.842;-2.230;2022-11-20T08:08:09;8.10;99.90
37222;DHT22;23119;51.842;-2.230;2022-11-20T08:10:39;8.20;99.90
37222;DHT22;23119;51.842;-2.230;2022-11-20T08:13:08;8.20;99.90
37222;DHT22;23119;51.842;-2.230;2022-11-20T08:15:55;8.30;99.90
37222;DHT22;23119;51.842;-2.230;2022-11-20T08:18:21;8.40;99.90
37222;DHT22;23119;51.842;-2.230;2022-11-20T08:20:49;8.50;99.90
37222;DHT22;23119;51.842;-2.230;2022-11-20T08:23:15;8.60;99.90
37222;DHT22;23119;51.842;-2.230;2022-11-20T08:25:40;8.70;99.90
37222;DHT22;23119;51.842;-2.230;2022-11-20T08:28:15;8.70;99.90
37222;DHT22;23119;51.842;-2.230;2022-11-20T08:30:43;8.80;99.90
37222;DHT22;23119;51.842;-2.230;2022-11-20T08:33:17;9.00;99.90
37222;DHT22;23119;51.842;-2.230;2022-11-20T08:35:43;9.00;99.90
37222;DHT22;23119;51.842;-2.230;2022-11-20T08:38:09;9.00;99.90
37222;DHT22;23119;51.842;-2.230;2022-11-20T08:40:37;9.00;99.90
37222;DHT22;23119;51.842;-2.230;2022-11-20T08:43:03;9.10;99.90
37222;DHT22;23119;51.842;-2.230;2022-11-20T08:45:32;9.20;99.90
37222;DHT22;23119;51.842;-2.230;2022-11-20T08:48:04;9.30;99.90
37222;DHT22;23119;51.842;-2.230;2022-11-20T08:50:30;9.50;99.90
37222;DHT22;23119;51.842;-2.230;2022-11-20T08:53:05;9.60;99.90
37222;DHT22;23119;51.842;-2.230;2022-11-20T08:55:30;9.70;99.90
37222;DHT22;23119;51.842;-2.230;2022-11-20T08:58:05;9.80;99.90
37222;DHT22;23119;51.842;-2.230;2022-11-20T09:00:32;9.90;99.90
37222;DHT22;23119;51.842;-2.230;2022-11-20T09:03:01;10.00;99.90
37222;DHT22;23119;51.842;-2.230;2022-11-20T09:05:28;10.20;99.90
37222;DHT22;23119;51.842;-2.230;2022-11-20T09:07:57;10.60;99.90
37222;DHT22;23119;51.842;-2.230;2022-11-20T09:10:23;11.20;99.90
37222;DHT22;23119;51.842;-2.230;2022-11-20T09:12:57;12.10;99.90
37222;DHT22;23119;51.842;-2.230;2022-11-20T09:15:26;13.10;99.90
37222;DHT22;23119;51.842;-2.230;2022-11-20T09:18:00;14.10;99.90
37222;DHT22;23119;51.842;-2.230;2022-11-20T09:20:30;15.30;99.90
37222;DHT22;23119;51.842;-2.230;2022-11-20T09:22:59;16.20;99.90
37222;DHT22;23119;51.842;-2.230;2022-11-20T09:25:25;17.00;99.90
37222;DHT22;23119;51.842;-2.230;2022-11-20T09:28:00;17.70;99.90
37222;DHT22;23119;51.842;-2.230;2022-11-20T09:30:29;18.40;99.90
37222;DHT22;23119;51.842;-2.230;2022-11-20T09:32:57;19.00;99.90
37222;DHT22;23119;51.842;-2.230;2022-11-20T09:35:23;19.50;99.90
37222;DHT22;23119;51.842;-2.230;2022-11-20T09:37:52;19.90;99.90
37222;DHT22;23119;51.842;-2.230;2022-11-20T09:40:23;20.30;99.90
37222;DHT22;23119;51.842;-2.230;2022-11-20T09:42:57;20.50;99.90
37222;DHT22;23119;51.842;-2.230;2022-11-20T09:51:06;21.20;96.30
37222;DHT22;23119;51.842;-2.230;2022-11-20T09:54:08;21.30;98.30
37222;DHT22;23119;51.842;-2.230;2022-11-20T09:56:37;21.40;96.60
37222;DHT22;23119;51.842;-2.230;2022-11-20T09:59:19;21.40;97.10
37222;DHT22;23119;51.842;-2.230;2022-11-20T10:01:57;21.60;96.60
37222;DHT22;23119;51.842;-2.230;2022-11-20T10:04:24;21.70;95.40
37222;DHT22;23119;51.842;-2.230;2022-11-20T10:07:07;21.70;96.50
37222;DHT22;23119;51.842;-2.230;2022-11-20T10:09:53;21.70;95.60
37222;DHT22;23119;51.842;-2.230;2022-11-20T10:12:35;21.60;95.00
37222;DHT22;23119;51.842;-2.230;2022-11-20T10:18:23;20.60;95.50
37222;DHT22;23119;51.842;-2.230;2022-11-20T10:29:42;17.00;98.80
37222;DHT22;23119;51.842;-2.230;2022-11-20T10:32:16;16.20;99.60
37222;DHT22;23119;51.842;-2.230;2022-11-20T10:37:23;15.20;99.90
37222;DHT22;23119;51.842;-2.230;2022-11-20T10:42:37;14.50;99.90
37222;DHT22;23119;51.842;-2.230;2022-11-20T10:47:54;14.00;99.90
37222;DHT22;23119;51.842;-2.230;2022-11-20T10:50:23;13.60;99.90
37222;DHT22;23119;51.842;-2.230;2022-11-20T10:53:20;13.40;99.90
37222;DHT22;23119;51.842;-2.230;2022-11-20T10:56:07;13.10;99.90
37222;DHT22;23119;51.842;-2.230;2022-11-20T11:01:25;12.50;99.90
37222;DHT22;23119;51.842;-2.230;2022-11-20T11:03:55;12.30;99.90
37222;DHT22;23119;51.842;-2.230;2022-11-20T11:06:30;12.20;99.90
37222;DHT22;23119;51.842;-2.230;2022-11-20T11:09:02;12.00;99.90
37222;DHT22;23119;51.842;-2.230;2022-11-20T11:11:32;11.70;99.90
37222;DHT22;23119;51.842;-2.230;2022-11-20T11:14:13;11.70;99.90
37222;DHT22;23119;51.842;-2.230;2022-11-20T11:16:56;11.50;99.90
37222;DHT22;23119;51.842;-2.230;2022-11-20T11:19:24;11.50;99.90
37222;DHT22;23119;51.842;-2.230;2022-11-20T11:21:54;11.40;99.90
37222;DHT22;23119;51.842;-2.230;2022-11-20T11:24:27;11.40;99.90
37222;DHT22;23119;51.842;-2.230;2022-11-20T11:27:02;11.40;99.90
37222;DHT22;23119;51.842;-2.230;2022-11-20T11:29:30;11.30;99.90
37222;DHT22;23119;51.842;-2.230;2022-11-20T11:32:08;11.20;99.90
37222;DHT22;23119;51.842;-2.230;2022-11-20T11:34:36;11.20;99.90
37222;DHT22;23119;51.842;-2.230;2022-11-20T11:37:13;11.20;99.90
37222;DHT22;23119;51.842;-2.230;2022-11-20T11:39:48;11.30;99.90
37222;DHT22;23119;51.842;-2.230;2022-11-20T11:42:20;11.30;99.90
37222;DHT22;23119;51.842;-2.230;2022-11-20T11:44:57;11.30;99.90
37222;DHT22;23119;51.842;-2.230;2022-11-20T11:47:57;11.30;99.90
37222;DHT22;23119;51.842;-2.230;2022-11-20T11:50:36;11.30;99.90
37222;DHT22;23119;51.842;-2.230;2022-11-20T11:53:19;11.30;99.90
37222;DHT22;23119;51.842;-2.230;2022-11-20T11:56:07;11.30;99.90
37222;DHT22;23119;51.842;-2.230;2022-11-20T12:01:04;11.40;99.90
37222;DHT22;23119;51.842;-2.230;2022-11-20T12:04:05;11.40;99.90
37222;DHT22;23119;51.842;-2.230;2022-11-20T12:07:00;11.40;99.90
37222;DHT22;23119;51.842;-2.230;2022-11-20T12:09:42;11.50;99.90
37222;DHT22;23119;51.842;-2.230;2022-11-20T12:12:43;11.60;99.90
37222;DHT22;23119;51.842;-2.230;2022-11-20T12:15:29;11.70;99.90
37222;DHT22;23119;51.842;-2.230;2022-11-20T12:18:04;11.80;99.90
37222;DHT22;23119;51.842;-2.230;2022-11-20T12:20:43;11.90;99.90
37222;DHT22;23119;51.842;-2.230;2022-11-20T12:23:28;12.00;99.90
37222;DHT22;23119;51.842;-2.230;2022-11-20T12:27:03;12.00;99.90
37222;DHT22;23119;51.842;-2.230;2022-11-20T12:38:39;11.70;99.90
37222;DHT22;23119;51.842;-2.230;2022-11-20T13:16:05;10.60;99.90
37222;DHT22;23119;51.842;-2.230;2022-11-20T13:18:41;10.50;99.90
37222;DHT22;23119;51.842;-2.230;2022-11-20T13:21:40;10.50;99.90
37222;DHT22;23119;51.842;-2.230;2022-11-20T13:27:16;10.50;99.90
37222;DHT22;23119;51.842;-2.230;2022-11-20T13:29:45;10.50;99.90
37222;DHT22;23119;51.842;-2.230;2022-11-20T13:32:17;10.60;99.90
37222;DHT22;23119;51.842;-2.230;2022-11-20T13:34:58;10.60;99.90
37222;DHT22;23119;51.842;-2.230;2022-11-20T13:37:37;10.70;99.90
37222;DHT22;23119;51.842;-2.230;2022-11-20T13:43:48;10.80;99.90
37222;DHT22;23119;51.842;-2.230;2022-11-20T13:46:01;10.80;99.90
37222;DHT22;23119;51.842;-2.230;2022-11-20T13:48:52;10.90;99.90
37222;DHT22;23119;51.842;-2.230;2022-11-20T14:00:17;10.70;99.90
37222;DHT22;23119;51.842;-2.230;2022-11-20T14:05:28;10.70;99.90
37222;DHT22;23119;51.842;-2.230;2022-11-20T14:07:57;10.70;99.90
37222;DHT22;23119;51.842;-2.230;2022-11-20T14:10:27;10.60;99.90
37222;DHT22;23119;51.842;-2.230;2022-11-20T14:12:56;10.60;99.90
37222;DHT22;23119;51.842;-2.230;2022-11-20T14:15:31;10.60;99.90
37222;DHT22;23119;51.842;-2.230;2022-11-20T14:18:15;10.60;99.90
37222;DHT22;23119;51.842;-2.230;2022-11-20T14:20:42;10.60;99.90
37222;DHT22;23119;51.842;-2.230;2022-11-20T14:23:11;10.60;99.90
37222;DHT22;23119;51.842;-2.230;2022-11-20T14:25:42;10.60;99.90
37222;DHT22;23119;51.842;-2.230;2022-11-20T14:28:24;10.60;99.90
37222;DHT22;23119;51.842;-2.230;2022-11-20T14:30:51;10.70;99.90
37222;DHT22;23119;51.842;-2.230;2022-11-20T14:33:17;10.60;99.90
37222;DHT22;23119;51.842;-2.230;2022-11-20T14:35:53;10.70;99.90
37222;DHT22;23119;51.842;-2.230;2022-11-20T14:38:29;10.70;99.90
37222;DHT22;23119;51.842;-2.230;2022-11-20T14:41:07;10.70;99.90
37222;DHT22;23119;51.842;-2.230;2022-11-20T14:43:36;10.70;99.90
37222;DHT22;23119;51.842;-2.230;2022-11-20T14:46:09;10.70;99.90
37222;DHT22;23119;51.842;-2.230;2022-11-20T14:48:49;10.80;99.90
37222;DHT22;23119;51.842;-2.230;2022-11-20T14:54:20;10.70;99.90
37222;DHT22;23119;51.842;-2.230;2022-11-20T14:57:01;10.60;99.90
37222;DHT22;23119;51.842;-2.230;2022-11-20T14:59:34;10.60;99.90
37222;DHT22;23119;51.842;-2.230;2022-11-20T15:02:11;10.60;99.90
37222;DHT22;23119;51.842;-2.230;2022-11-20T15:04:56;10.50;99.90
37222;DHT22;23119;51.842;-2.230;2022-11-20T15:07:36;10.50;99.90
37222;DHT22;23119;51.842;-2.230;2022-11-20T15:10:30;10.40;99.90
37222;DHT22;23119;51.842;-2.230;2022-11-20T15:13:03;10.40;99.90
37222;DHT22;23119;51.842;-2.230;2022-11-20T15:15:52;10.30;99.90
37222;DHT22;23119;51.842;-2.230;2022-11-20T15:18:28;10.30;99.90
37222;DHT22;23119;51.842;-2.230;2022-11-20T15:21:01;10.20;99.90
37222;DHT22;23119;51.842;-2.230;2022-11-20T15:23:27;10.20;99.90
37222;DHT22;23119;51.842;-2.230;2022-11-20T15:25:58;10.10;99.90
37222;DHT22;23119;51.842;-2.230;2022-11-20T15:28:43;10.10;99.90
37222;DHT22;23119;51.842;-2.230;2022-11-20T15:31:22;10.00;99.90
37222;DHT22;23119;51.842;-2.230;2022-11-20T15:33:49;9.90;99.90
37222;DHT22;23119;51.842;-2.230;2022-11-20T15:36:18;9.80;99.90
37222;DHT22;23119;51.842;-2.230;2022-11-20T15:38:49;9.80;99.90
37222;DHT22;23119;51.842;-2.230;2022-11-20T15:41:15;9.70;99.90
37222;DHT22;23119;51.842;-2.230;2022-11-20T15:43:45;9.60;99.90
37222;DHT22;23119;51.842;-2.230;2022-11-20T15:46:25;9.50;99.90
37222;DHT22;23119;51.842;-2.230;2022-11-20T15:48:56;9.50;99.90
37222;DHT22;23119;51.842;-2.230;2022-11-20T15:51:35;9.40;99.90
37222;DHT22;23119;51.842;-2.230;2022-11-20T15:54:37;9.40;99.90
37222;DHT22;23119;51.842;-2.230;2022-11-20T15:56:58;9.30;99.90
37222;DHT22;23119;51.842;-2.230;2022-11-20T15:59:31;9.20;99.90
37222;DHT22;23119;51.842;-2.230;2022-11-20T16:01:59;9.10;99.90
37222;DHT22;23119;51.842;-2.230;2022-11-20T16:04:29;9.00;99.90
37222;DHT22;23119;51.842;-2.230;2022-11-20T16:06:58;9.00;99.90
37222;DHT22;23119;51.842;-2.230;2022-11-20T16:09:24;8.90;99.90
37222;DHT22;23119;51.842;-2.230;2022-11-20T16:11:53;8.80;99.90
37222;DHT22;23119;51.842;-2.230;2022-11-20T16:14:22;8.70;99.90
37222;DHT22;23119;51.842;-2.230;2022-11-20T16:17:09;8.60;99.90
37222;DHT22;23119;51.842;-2.230;2022-11-20T16:19:38;8.60;99.90
37222;DHT22;23119;51.842;-2.230;2022-11-20T16:22:09;8.50;99.90
37222;DHT22;23119;51.842;-2.230;2022-11-20T16:24:35;8.50;99.90
37222;DHT22;23119;51.842;-2.230;2022-11-20T16:27:04;8.40;99.90
37222;DHT22;23119;51.842;-2.230;2022-11-20T16:29:32;8.50;99.90
37222;DHT22;23119;51.842;-2.230;2022-11-20T16:32:01;8.40;99.90
37222;DHT22;23119;51.842;-2.230;2022-11-20T16:34:29;8.40;99.90
37222;DHT22;23119;51.842;-2.230;2022-11-20T16:36:55;8.40;99.90
37222;DHT22;23119;51.842;-2.230;2022-11-20T16:39:27;8.40;99.90
37222;DHT22;23119;51.842;-2.230;2022-11-20T16:42:03;8.40;99.90
37222;DHT22;23119;51.842;-2.230;2022-11-20T16:44:36;8.40;99.90
37222;DHT22;23119;51.842;-2.230;2022-11-20T16:47:02;8.40;99.90
37222;DHT22;23119;51.842;-2.230;2022-11-20T16:49:32;6.90;99.90
37222;DHT22;23119;51.842;-2.230;2022-11-20T16:52:01;8.40;99.90
37222;DHT22;23119;51.842;-2.230;2022-11-20T16:54:27;8.40;99.90
37222;DHT22;23119;51.842;-2.230;2022-11-20T16:57:00;8.40;99.90
37222;DHT22;23119;51.842;-2.230;2022-11-20T16:59:35;8.40;99.90
37222;DHT22;23119;51.842;-2.230;2022-11-20T17:02:02;8.40;99.90
37222;DHT22;23119;51.842;-2.230;2022-11-20T17:04:30;8.40;99.90
37222;DHT22;23119;51.842;-2.230;2022-11-20T17:06:56;8.30;99.90
37222;DHT22;23119;51.842;-2.230;2022-11-20T17:09:24;8.40;99.90
37222;DHT22;23119;51.842;-2.230;2022-11-20T17:11:52;8.40;99.90
37222;DHT22;23119;51.842;-2.230;2022-11-20T17:14:21;8.40;99.90
37222;DHT22;23119;51.842;-2.230;2022-11-20T17:16:56;8.40;99.90
37222;DHT22;23119;51.842;-2.230;2022-11-20T17:19:25;8.40;99.90
37222;DHT22;23119;51.842;-2.230;2022-11-20T17:21:51;8.40;99.90
37222;DHT22;23119;51.842;-2.230;2022-11-20T17:24:16;8.40;99.90
37222;DHT22;23119;51.842;-2.230;2022-11-20T17:26:47;8.30;99.90
37222;DHT22;23119;51.842;-2.230;2022-11-20T17:29:15;8.30;99.90
37222;DHT22;23119;51.842;-2.230;2022-11-20T17:31:44;8.20;99.90
37222;DHT22;23119;51.842;-2.230;2022-11-20T17:34:17;8.30;99.90
37222;DHT22;23119;51.842;-2.230;2022-11-20T17:36:43;8.20;99.90
37222;DHT22;23119;51.842;-2.230;2022-11-20T17:39:18;8.20;99.90